KCDN

Woodward Field Airport

Camden, South Carolina, USA
METAR KCDN 150315Z AUTO 00000KT 10SM CLR 25/22 A3004 RMK AO2
Observed Flight Rules
Aug-15 @ 03:15 UTC (21 minutes ago) Visual Flight Rules
Visibility Clouds
10 miles
  • Clear skies
Temperatures Readings
Current 25°C / 77°F
Dewpoint 22°C / 72°F
Humidity 83%
Altimeter 30.04" Hg
Pressure 1017 hPa
Elevation 92
METAR KCDN 150315Z AUTO 00000KT 10SM CLR 25/22 A3004 RMK AO2
Observed Flight Rules
Aug-15 @ 03:15 UTC
(21 minutes ago)
VFR
Clouds
  • Clear skies
Temperature Dewpoint
25°C / 77°F 22°C / 72°F
Humidity Altimeter Pressure
83% 30.04" Hg 1017 hPa